Anita N — V7RR5 — position and weather

sailwx.info

Track history (hours):
 
Tides and Currents Weather Stations Pressure Air Temp Water Temp Dewpoint Dewpoint Depression Visibility Wind Speed Wind Dir Waves Ship Positions

Anita N

Last reported at 2018-Apr-17 13:21 UTC. Time now 2018-Apr-21 17:09 UTC.
Position N 34°36' E 129°03'.

Length 190 m; draft 6.2 m.

Type: Cargo ship. MMSI: 538003568.

Date/timePositionNaut miles runAvg speedWind from/ knotsBaromVisibWave heightAir tempDewpointWater temp
2018-Apr-17 13:21N 34°36' E 129°03'411.5
2018-Apr-17 12:59N 34°40' E 129°06'2612.0
2018-Apr-17 10:47N 35°01' E 129°25'  
2018-Apr-12 20:00N 34°53' E 129°57'813.2
2018-Apr-12 19:23N 34°47' E 130°03'1013.5
2018-Apr-12 18:38N 34°39' E 130°11'213.1
2018-Apr-12 18:29N 34°37' E 130°12'713.6
2018-Apr-12 17:58N 34°32' E 130°17'613.2
2018-Apr-12 17:30N 34°27' E 130°22'713.3
2018-Apr-12 17:01N 34°22' E 130°27'713.4
2018-Apr-12 16:30N 34°16' E 130°32'613.0
2018-Apr-12 16:00N 34°11' E 130°36'713.1
2018-Apr-12 15:30N 34°07' E 130°42'713.2
2018-Apr-12 15:01N 34°04' E 130°49'510.4
2018-Apr-12 14:30N 33°60' E 130°53'4 8.8
2018-Apr-12 14:01N 33°55' E 130°53'4 8.4
2018-Apr-12 13:30N 33°58' E 130°57'5 9.6
2018-Apr-12 13:01N 33°57' E 131°03'510.0
2018-Apr-12 12:31N 33°54' E 131°08'612.4
2018-Apr-12 12:01N 33°51' E 131°15'612.9
2018-Apr-12 11:30N 33°50' E 131°22'713.1
2018-Apr-12 11:01N 33°49' E 131°30'713.3
2018-Apr-12 10:31N 33°47' E 131°38'713.4
2018-Apr-12 10:00N 33°46' E 131°46'713.7
2018-Apr-12 09:30N 33°45' E 131°54'713.6
2018-Apr-12 09:00N 33°43' E 132°02'912.9
2018-Apr-12 08:17N 33°43' E 132°13'1413.0
2018-Apr-12 07:11N 33°49' E 132°29'313.0
2018-Apr-12 06:58N 33°50' E 132°32'613.2
2018-Apr-12 06:30N 33°55' E 132°37'713.5
2018-Apr-12 06:01N 33°59' E 132°43'  
Track history (hours):
 
Tides and Currents Weather Stations Pressure Air Temp Water Temp Dewpoint Dewpoint Depression Visibility Wind Speed Wind Dir Waves Ship Positions

Anita N

Last reported at 2018-Apr-17 13:21 UTC. Time now 2018-Apr-21 17:09 UTC.
Position N 34°36' E 129°03'.

Length 190 m; draft 6.2 m.

Type: Cargo ship. MMSI: 538003568.

Date/timePositionNaut miles runAvg speedWind from/ knotsBaromVisibWave heightAir tempDewpointWater temp
2018-Apr-17 13:21N 34°36' E 129°03'411.5
2018-Apr-17 12:59N 34°40' E 129°06'2612.0
2018-Apr-17 10:47N 35°01' E 129°25'  
2018-Apr-12 20:00N 34°53' E 129°57'813.2
2018-Apr-12 19:23N 34°47' E 130°03'1013.5
2018-Apr-12 18:38N 34°39' E 130°11'213.1
2018-Apr-12 18:29N 34°37' E 130°12'713.6
2018-Apr-12 17:58N 34°32' E 130°17'613.2
2018-Apr-12 17:30N 34°27' E 130°22'713.3
2018-Apr-12 17:01N 34°22' E 130°27'713.4
2018-Apr-12 16:30N 34°16' E 130°32'613.0
2018-Apr-12 16:00N 34°11' E 130°36'713.1
2018-Apr-12 15:30N 34°07' E 130°42'713.2
2018-Apr-12 15:01N 34°04' E 130°49'510.4
2018-Apr-12 14:30N 33°60' E 130°53'4 8.8
2018-Apr-12 14:01N 33°55' E 130°53'4 8.4
2018-Apr-12 13:30N 33°58' E 130°57'5 9.6
2018-Apr-12 13:01N 33°57' E 131°03'510.0
2018-Apr-12 12:31N 33°54' E 131°08'612.4
2018-Apr-12 12:01N 33°51' E 131°15'612.9
2018-Apr-12 11:30N 33°50' E 131°22'713.1
2018-Apr-12 11:01N 33°49' E 131°30'713.3
2018-Apr-12 10:31N 33°47' E 131°38'713.4
2018-Apr-12 10:00N 33°46' E 131°46'713.7
2018-Apr-12 09:30N 33°45' E 131°54'713.6
2018-Apr-12 09:00N 33°43' E 132°02'912.9
2018-Apr-12 08:17N 33°43' E 132°13'1413.0
2018-Apr-12 07:11N 33°49' E 132°29'313.0
2018-Apr-12 06:58N 33°50' E 132°32'613.2
2018-Apr-12 06:30N 33°55' E 132°37'713.5
2018-Apr-12 06:01N 33°59' E 132°43'  

Dump ship's entire track history